Time;durP1;ratioP1;P1;durP2;ratioP2;P2;SDS_P1;SDS_P2;PMS_P1;PMS_P2;Temp;Humidity;BMP_temperature;BMP_pressure;BME280_temperature;BME280_humidity;BME280_pressure;Samples;Min_cycle;Max_cycle;Signal;HPM_P1;HPM_P2
2023/11/30 00:00:58;;;;;;;39.17;36.47;;;-1.10;89.30;;;;;;4997952;28;20183;-89
2023/11/30 00:03:24;;;;;;;20.20;18.67;;;-1.10;89.20;;;;;;4998834;28;20196;-88
2023/11/30 00:05:49;;;;;;;21.07;19.37;;;-1.00;89.10;;;;;;4998965;28;20186;-88
2023/11/30 00:08:15;;;;;;;21.17;19.60;;;-1.00;88.80;;;;;;4998734;28;20201;-88
2023/11/30 00:10:40;;;;;;;37.50;34.90;;;-1.00;88.70;;;;;;5016452;28;20173;-88
2023/11/30 00:13:06;;;;;;;38.53;35.83;;;-1.00;88.60;;;;;;4998875;28;20539;-88
2023/11/30 00:15:31;;;;;;;40.03;37.33;;;-1.00;88.40;;;;;;4998590;28;20584;-88
2023/11/30 00:17:57;;;;;;;20.50;19.00;;;-1.00;88.20;;;;;;4998807;28;20193;-89
2023/11/30 00:20:22;;;;;;;20.77;19.27;;;-1.00;88.20;;;;;;4998616;28;20271;-88
2023/11/30 00:22:48;;;;;;;39.10;36.20;;;-1.00;88.20;;;;;;4999106;28;20179;-89
2023/11/30 00:25:13;;;;;;;37.30;34.70;;;-1.10;88.10;;;;;;4998457;28;20179;-88
2023/11/30 00:27:39;;;;;;;39.70;36.90;;;-1.10;88.00;;;;;;4998496;28;20209;-89
2023/11/30 00:30:06;;;;;;;21.33;19.63;;;-1.20;87.70;;;;;;4998719;28;20180;-89
2023/11/30 00:32:32;;;;;;;22.17;20.37;;;-1.20;87.60;;;;;;5015808;28;20664;-88
2023/11/30 00:34:57;;;;;;;21.80;20.20;;;-1.30;87.60;;;;;;5015824;28;20212;-88
2023/11/30 00:37:23;;;;;;;38.03;35.33;;;-1.40;87.50;;;;;;5015872;28;20191;-88
2023/11/30 00:39:48;;;;;;;38.10;35.40;;;-1.40;87.40;;;;;;5015634;28;20180;-88
2023/11/30 00:42:13;;;;;;;40.87;37.90;;;-1.50;87.40;;;;;;4998281;28;20187;-89
2023/11/30 00:44:39;;;;;;;23.90;21.87;;;-1.60;87.40;;;;;;4998078;28;20706;-88
2023/11/30 00:47:04;;;;;;;23.47;21.37;;;-1.70;87.30;;;;;;5015668;28;20228;-87
2023/11/30 00:49:30;;;;;;;40.53;37.43;;;-1.90;87.40;;;;;;4998254;28;20212;-88
2023/11/30 00:51:56;;;;;;;39.03;36.03;;;-2.10;87.60;;;;;;5017547;28;20186;-87
2023/11/30 00:54:21;;;;;;;41.20;38.03;;;-2.30;87.90;;;;;;4998041;28;20225;-87
2023/11/30 00:56:47;;;;;;;25.70;23.47;;;-2.40;88.20;;;;;;5015613;28;20196;-88
2023/11/30 00:59:12;;;;;;;23.03;20.93;;;-2.30;88.40;;;;;;5015565;28;20665;-86
2023/11/30 01:01:37;;;;;;;22.23;20.17;;;-2.30;88.50;;;;;;4997947;28;20184;-88
2023/11/30 01:04:03;;;;;;;37.67;34.67;;;-2.30;88.70;;;;;;5015423;28;20184;-88
2023/11/30 01:06:29;;;;;;;39.17;36.23;;;-2.30;88.80;;;;;;4997832;28;20213;-88
2023/11/30 01:08:54;;;;;;;40.07;37.17;;;-2.30;88.90;;;;;;4997664;28;20290;-88
2023/11/30 01:11:20;;;;;;;22.40;20.43;;;-2.30;88.90;;;;;;5015070;28;20178;-88
2023/11/30 01:13:45;;;;;;;21.73;19.70;;;-2.30;88.90;;;;;;5015047;28;20173;-88
2023/11/30 01:16:11;;;;;;;22.27;20.17;;;-2.30;88.90;;;;;;4997577;28;20203;-88
2023/11/30 01:18:36;;;;;;;21.27;19.43;;;-2.20;88.90;;;;;;4997408;28;20198;-88
2023/11/30 01:21:02;;;;;;;22.77;20.37;;;-2.20;88.90;;;;;;4997556;28;20183;-88
2023/11/30 01:23:28;;;;;;;21.43;19.57;;;-2.00;89.20;;;;;;4997426;28;20664;-88
2023/11/30 01:25:54;;;;;;;21.77;19.73;;;-1.90;89.20;;;;;;4997444;28;20208;-88
2023/11/30 01:28:19;;;;;;;22.53;20.30;;;-1.80;89.30;;;;;;4997323;28;20208;-89
2023/11/30 01:30:45;;;;;;;22.87;20.80;;;-1.80;89.10;;;;;;5014814;28;20173;-88
2023/11/30 01:33:10;;;;;;;39.03;36.13;;;-1.80;89.00;;;;;;4997465;28;20197;-88
2023/11/30 01:35:36;;;;;;;40.23;37.03;;;-1.80;88.90;;;;;;4997221;28;20250;-88
2023/11/30 01:38:02;;;;;;;42.50;39.03;;;-1.80;88.80;;;;;;4997127;28;20595;-88
2023/11/30 01:40:27;;;;;;;33.60;30.83;;;-1.70;88.70;;;;;;4997102;28;20177;-88
2023/11/30 01:42:53;;;;;;;40.00;36.60;;;-1.80;88.40;;;;;;4996991;28;20177;-88
2023/11/30 01:45:18;;;;;;;24.60;22.30;;;-1.90;88.20;;;;;;4997435;28;20284;-88
2023/11/30 01:47:44;;;;;;;24.23;21.93;;;-2.00;88.10;;;;;;4996957;28;20249;-88
2023/11/30 01:50:10;;;;;;;41.00;37.67;;;-2.10;88.20;;;;;;4997178;28;20183;-88
2023/11/30 01:52:36;;;;;;;43.07;39.73;;;-2.10;88.30;;;;;;4997142;28;20273;-88
2023/11/30 01:55:02;;;;;;;43.23;39.93;;;-2.10;88.30;;;;;;5014448;28;20289;-88
2023/11/30 01:57:28;;;;;;;24.20;22.03;;;-2.20;88.30;;;;;;4996870;28;20231;-88
2023/11/30 01:59:54;;;;;;;23.37;21.20;;;-2.10;88.30;;;;;;4997057;28;20233;-88
2023/11/30 02:02:20;;;;;;;41.00;37.90;;;-2.20;88.30;;;;;;5014532;28;20252;-88
2023/11/30 02:04:51;;;;;;;41.07;37.83;;;-2.20;88.30;;;;;;4997937;28;20177;-88
2023/11/30 02:07:17;;;;;;;39.83;36.83;;;-2.30;88.40;;;;;;4996705;28;20173;-89
2023/11/30 02:09:42;;;;;;;40.53;37.53;;;-2.30;88.60;;;;;;4996686;28;20272;-88
2023/11/30 02:12:08;;;;;;;23.90;21.60;;;-2.40;88.70;;;;;;5014294;28;20243;-89
2023/11/30 02:14:35;;;;;;;24.20;21.90;;;-2.40;88.90;;;;;;4996778;28;20645;-88
2023/11/30 02:17:02;;;;;;;39.50;36.40;;;-2.40;89.10;;;;;;4996262;28;20176;-88
2023/11/30 02:19:27;;;;;;;39.70;36.60;;;-2.40;89.20;;;;;;4996690;28;20641;-89
2023/11/30 02:21:53;;;;;;;42.13;38.40;;;-2.40;89.30;;;;;;4996112;28;20185;-88
2023/11/30 02:24:18;;;;;;;23.90;21.77;;;-2.40;89.40;;;;;;5013731;28;20180;-89
2023/11/30 02:26:44;;;;;;;24.03;21.53;;;-2.30;89.50;;;;;;5013817;28;20178;-89
2023/11/30 02:29:09;;;;;;;22.90;20.57;;;-2.30;89.60;;;;;;4996126;28;20197;-88
2023/11/30 02:31:35;;;;;;;40.50;37.20;;;-2.40;89.60;;;;;;4996377;28;20638;-89
2023/11/30 02:34:01;;;;;;;43.63;40.13;;;-2.40;89.70;;;;;;4995946;28;20193;-89
2023/11/30 02:36:26;;;;;;;41.63;38.13;;;-2.30;89.90;;;;;;4996043;28;20201;-88
2023/11/30 02:38:52;;;;;;;21.97;19.97;;;-2.20;90.00;;;;;;4996035;28;20200;-89
2023/11/30 02:41:18;;;;;;;22.93;20.70;;;-2.20;89.90;;;;;;5013549;28;20173;-88
2023/11/30 02:43:43;;;;;;;38.40;35.23;;;-2.30;89.80;;;;;;4995905;28;20181;-88
2023/11/30 02:46:09;;;;;;;39.07;36.00;;;-2.20;90.00;;;;;;4995948;28;20182;-89
2023/11/30 02:48:37;;;;;;;40.77;37.67;;;-2.20;90.00;;;;;;4995892;28;20607;-89
2023/11/30 02:51:02;;;;;;;42.80;39.30;;;-2.10;90.10;;;;;;5013509;28;20618;-88
2023/11/30 02:53:28;;;;;;;23.40;21.30;;;-2.10;90.00;;;;;;4995953;28;20270;-89
2023/11/30 02:55:53;;;;;;;24.60;22.30;;;-2.10;90.00;;;;;;4995791;28;20234;-89
2023/11/30 02:58:19;;;;;;;39.40;36.30;;;-2.10;89.90;;;;;;4995712;28;20200;-89
2023/11/30 03:00:46;;;;;;;40.73;37.53;;;-2.20;89.80;;;;;;4995735;28;20174;-89
2023/11/30 03:04:01;;;;;;;37.67;34.67;;;-2.20;89.80;;;;;;4996231;28;20177;-93
2023/11/30 03:06:27;;;;;;;22.90;20.80;;;-2.20;89.70;;;;;;4996622;28;20595;-89
2023/11/30 03:08:53;;;;;;;23.17;21.00;;;-2.30;89.60;;;;;;4995618;28;20212;-89
2023/11/30 03:11:18;;;;;;;36.70;33.70;;;-2.30;89.60;;;;;;5013164;28;20177;-89
2023/11/30 03:13:44;;;;;;;38.33;35.23;;;-2.20;89.70;;;;;;4995701;28;20277;-89
2023/11/30 03:16:09;;;;;;;40.20;36.90;;;-2.10;89.90;;;;;;4995508;28;20212;-90
2023/11/30 03:18:38;;;;;;;42.37;39.00;;;-2.10;89.80;;;;;;5013137;28;20193;-90
2023/11/30 03:21:04;;;;;;;22.60;20.60;;;-2.20;89.80;;;;;;4995671;28;20605;-88
2023/11/30 03:23:30;;;;;;;23.40;21.27;;;-2.20;89.80;;;;;;4995987;28;20175;-88
2023/11/30 03:25:55;;;;;;;40.27;36.93;;;-2.20;89.60;;;;;;4995900;28;20224;-89
2023/11/30 03:28:21;;;;;;;44.93;41.43;;;-2.30;89.40;;;;;;5013035;28;20243;-89
2023/11/30 03:30:46;;;;;;;43.77;40.57;;;-2.30;89.20;;;;;;4995567;28;20197;-89
2023/11/30 03:33:12;;;;;;;25.17;22.83;;;-2.40;88.80;;;;;;5013557;28;20197;-88
2023/11/30 03:35:37;;;;;;;25.53;23.20;;;-2.60;88.30;;;;;;4999159;28;20201;-89
2023/11/30 03:38:03;;;;;;;25.10;22.90;;;-2.60;88.10;;;;;;4999347;28;20193;-89
2023/11/30 03:40:28;;;;;;;42.47;39.07;;;-2.60;88.20;;;;;;4999616;28;20249;-89
2023/11/30 03:42:54;;;;;;;44.30;40.67;;;-2.60;88.10;;;;;;4999354;28;20200;-89
2023/11/30 03:45:19;;;;;;;43.87;40.57;;;-2.60;88.00;;;;;;5016902;28;20591;-89
2023/11/30 03:47:45;;;;;;;24.50;22.23;;;-2.60;88.00;;;;;;4999074;28;20288;-89
2023/11/30 03:50:10;;;;;;;27.33;25.03;;;-2.60;87.80;;;;;;4999235;28;20180;-89
2023/11/30 03:52:36;;;;;;;43.57;40.03;;;-2.70;87.10;;;;;;4999136;28;20185;-89
2023/11/30 03:55:01;;;;;;;129.70;43.87;;;-2.80;86.30;;;;;;4999029;28;20208;-89
2023/11/30 03:57:27;;;;;;;48.53;44.93;;;-3.00;86.00;;;;;;4998916;28;20243;-89
2023/11/30 03:59:53;;;;;;;95.60;43.83;;;-3.20;85.80;;;;;;4999148;28;20552;-89
2023/11/30 04:02:18;;;;;;;136.53;26.87;;;-3.30;85.90;;;;;;4999036;28;20176;-89
2023/11/30 04:04:44;;;;;;;27.77;25.27;;;-3.40;86.10;;;;;;5016522;28;20263;-89
2023/11/30 04:07:09;;;;;;;44.60;40.97;;;-3.50;86.30;;;;;;4999029;28;20612;-89
2023/11/30 04:09:37;;;;;;;42.73;39.60;;;-3.60;86.40;;;;;;4999024;28;20180;-90
2023/11/30 04:12:03;;;;;;;46.60;43.00;;;-3.60;86.50;;;;;;4999029;28;20187;-89
2023/11/30 04:14:28;;;;;;;45.50;41.70;;;-3.60;86.60;;;;;;4998545;28;20210;-89
2023/11/30 04:16:54;;;;;;;70.83;25.17;;;-3.60;86.40;;;;;;5016453;28;20177;-89
2023/11/30 04:19:19;;;;;;;138.10;28.37;;;-3.60;86.20;;;;;;4999624;28;20194;-89
2023/11/30 04:21:45;;;;;;;45.80;42.23;;;-3.90;85.50;;;;;;4998661;28;20206;-89
2023/11/30 04:24:12;;;;;;;48.33;44.53;;;-4.10;85.60;;;;;;4998585;28;20657;-89
2023/11/30 04:26:37;;;;;;;47.80;44.00;;;-4.00;86.00;;;;;;4998485;28;20209;-89
2023/11/30 04:29:03;;;;;;;48.53;44.63;;;-3.90;86.40;;;;;;5016023;28;20202;-89
2023/11/30 04:31:28;;;;;;;29.83;26.93;;;-3.90;86.60;;;;;;4998495;28;20303;-89
2023/11/30 04:33:54;;;;;;;115.73;27.00;;;-3.80;86.50;;;;;;4998339;28;20212;-90
2023/11/30 04:36:19;;;;;;;85.90;45.33;;;-4.20;85.10;;;;;;4998275;28;20211;-89
2023/11/30 04:38:45;;;;;;;111.50;46.37;;;-4.60;84.30;;;;;;4998485;28;20194;-89
2023/11/30 04:41:10;;;;;;;57.67;43.33;;;-5.00;83.80;;;;;;4998742;28;20265;-90
2023/11/30 04:43:37;;;;;;;45.63;41.00;;;-5.30;83.80;;;;;;5016000;28;20212;-89
2023/11/30 04:46:03;;;;;;;60.93;23.73;;;-5.60;84.00;;;;;;4998268;28;20641;-90
2023/11/30 04:48:28;;;;;;;85.17;23.23;;;-5.70;84.40;;;;;;4998016;28;20208;-89
2023/11/30 04:50:54;;;;;;;73.47;38.40;;;-5.80;84.80;;;;;;5015946;28;20174;-90
2023/11/30 04:53:19;;;;;;;83.27;37.57;;;-5.80;85.20;;;;;;4998200;28;20672;-90
2023/11/30 04:55:45;;;;;;;65.63;34.50;;;-5.80;85.70;;;;;;4998016;28;20546;-89
2023/11/30 04:58:10;;;;;;;21.97;20.07;;;-5.80;86.00;;;;;;4997875;28;20294;-90
2023/11/30 05:00:36;;;;;;;64.63;20.33;;;-5.80;86.20;;;;;;4998041;28;20241;-90
2023/11/30 05:03:01;;;;;;;55.47;19.73;;;-5.80;86.20;;;;;;4997885;28;20196;-90
2023/11/30 05:05:27;;;;;;;41.37;32.23;;;-5.90;86.30;;;;;;4997938;28;20173;-90
2023/11/30 05:07:52;;;;;;;85.07;34.60;;;-5.90;86.40;;;;;;5015225;28;20196;-90
2023/11/30 05:10:18;;;;;;;117.57;33.67;;;-6.00;86.40;;;;;;4997871;28;20188;-90
2023/11/30 05:12:45;;;;;;;21.77;19.77;;;-6.10;86.60;;;;;;4998063;28;20173;-90
2023/11/30 05:15:10;;;;;;;106.70;22.20;;;-6.00;86.80;;;;;;4997728;28;20211;-90
2023/11/30 05:17:36;;;;;;;54.20;26.30;;;-5.90;87.00;;;;;;4997528;28;20280;-90
2023/11/30 05:20:03;;;;;;;155.67;36.77;;;-5.90;87.10;;;;;;4997725;28;20660;-90
2023/11/30 05:22:29;;;;;;;35.17;32.43;;;-6.00;87.10;;;;;;4997938;28;20173;-91
2023/11/30 05:24:54;;;;;;;36.97;34.23;;;-6.00;87.10;;;;;;4997842;28;20638;-91
2023/11/30 05:27:20;;;;;;;24.90;22.50;;;-5.90;87.30;;;;;;4998232;28;20215;-90
2023/11/30 05:29:45;;;;;;;27.00;24.30;;;-5.80;87.50;;;;;;4997787;28;20184;-90
2023/11/30 05:32:11;;;;;;;40.03;36.63;;;-5.70;87.40;;;;;;4997490;28;20197;-91
2023/11/30 05:34:37;;;;;;;39.43;35.83;;;-5.70;87.20;;;;;;4997705;28;20764;-90
2023/11/30 05:37:03;;;;;;;61.80;38.53;;;-5.70;87.00;;;;;;5014884;28;20185;-90
2023/11/30 05:39:32;;;;;;;66.03;42.83;;;-5.70;86.70;;;;;;4997282;28;20192;-91
2023/11/30 05:42:01;;;;;;;89.40;24.57;;;-6.10;85.90;;;;;;4998041;28;20637;-90
2023/11/30 05:44:26;;;;;;;120.13;26.07;;;-6.50;85.40;;;;;;4997233;28;20186;-90
2023/11/30 05:46:52;;;;;;;90.47;22.33;;;-6.70;85.50;;;;;;4997438;28;20185;-90
2023/11/30 05:49:18;;;;;;;61.00;20.67;;;-6.90;85.70;;;;;;4997840;28;20205;-92
2023/11/30 05:51:43;;;;;;;97.90;20.90;;;-7.10;85.90;;;;;;4997721;28;20696;-92
2023/11/30 05:54:10;;;;;;;76.20;20.90;;;-7.20;86.40;;;;;;4997664;28;20199;-92
2023/11/30 05:56:36;;;;;;;101.20;22.53;;;-7.30;86.70;;;;;;4997857;28;20211;-92
2023/11/30 05:59:02;;;;;;;78.27;33.20;;;-7.40;87.00;;;;;;5015122;28;20284;-92
2023/11/30 06:01:28;;;;;;;54.10;31.70;;;-7.50;87.20;;;;;;4998186;28;20629;-92
2023/11/30 06:03:57;;;;;;;59.70;30.30;;;-7.50;87.50;;;;;;5014921;28;20177;-93
2023/11/30 06:06:25;;;;;;;99.70;33.50;;;-7.30;87.90;;;;;;4998164;28;20264;-92
2023/11/30 06:08:54;;;;;;;130.97;32.07;;;-7.20;88.00;;;;;;4997509;28;20201;-92
2023/11/30 06:11:22;;;;;;;67.57;34.27;;;-7.20;88.20;;;;;;4997643;28;20641;-92
2023/11/30 06:13:48;;;;;;;96.10;21.93;;;-7.10;88.40;;;;;;4997270;28;20189;-91
2023/11/30 06:16:18;;;;;;;118.03;22.50;;;-7.10;88.50;;;;;;4998443;28;20206;-91
2023/11/30 06:18:56;;;;;;;72.83;34.30;;;-7.10;88.70;;;;;;4997614;28;20201;-92
2023/11/30 06:21:26;;;;;;;71.73;34.67;;;-7.00;88.80;;;;;;4997006;28;20190;-92
2023/11/30 06:23:52;;;;;;;103.37;36.00;;;-7.00;88.70;;;;;;4997226;28;20174;-92
2023/11/30 06:26:18;;;;;;;99.73;35.50;;;-7.20;88.60;;;;;;4997591;28;20188;-93
2023/11/30 06:28:44;;;;;;;148.27;35.40;;;-7.20;88.60;;;;;;4998215;28;20278;-92
2023/11/30 06:31:16;;;;;;;104.03;35.13;;;-7.20;88.70;;;;;;4997955;28;20208;-93
2023/11/30 06:33:50;;;;;;;44.13;21.27;;;-7.20;88.80;;;;;;4997800;28;20196;-92
2023/11/30 06:36:18;;;;;;;186.47;24.73;;;-7.10;88.90;;;;;;4998118;28;20204;-93
2023/11/30 06:38:46;;;;;;;160.87;34.77;;;-7.20;88.80;;;;;;4997894;28;20197;-93
2023/11/30 06:41:18;;;;;;;190.73;35.33;;;-7.30;88.80;;;;;;4998642;28;20177;-93
2023/11/30 06:43:44;;;;;;;194.77;34.97;;;-7.50;88.60;;;;;;4998037;28;20540;-93
2023/11/30 06:46:20;;;;;;;207.77;31.93;;;-7.60;88.60;;;;;;4998312;28;20185;-93
2023/11/30 06:48:49;;;;;;;154.30;31.00;;;-7.80;88.70;;;;;;4998580;28;20664;-94
2023/11/30 06:51:20;;;;;;;147.50;31.47;;;-7.80;88.80;;;;;;4998613;28;20185;-94
2023/11/30 06:53:48;;;;;;;32.43;29.30;;;-8.00;88.70;;;;;;4999383;28;20203;-93
2023/11/30 06:56:17;;;;;;;31.03;28.23;;;-7.90;88.90;;;;;;4998749;28;20320;-93
2023/11/30 06:58:56;;;;;;;32.87;30.03;;;-7.70;89.10;;;;;;4998907;28;20204;-94
2023/11/30 07:01:25;;;;;;;33.67;30.77;;;-7.40;89.40;;;;;;4999499;28;20253;-94
2023/11/30 07:03:54;;;;;;;36.73;32.57;;;-7.30;89.30;;;;;;4999627;28;20182;-93
2023/11/30 07:06:27;;;;;;;24.00;21.60;;;-7.40;89.20;;;;;;5000380;28;20173;-93
2023/11/30 07:08:55;;;;;;;23.00;20.70;;;-7.30;89.10;;;;;;5000252;28;20216;-94
2023/11/30 07:11:27;;;;;;;36.67;33.07;;;-7.30;89.00;;;;;;4999506;28;20181;-94
2023/11/30 07:13:56;;;;;;;36.80;33.40;;;-7.30;88.90;;;;;;5002039;28;20241;-94
2023/11/30 07:16:36;;;;;;;42.47;33.80;;;-7.20;89.00;;;;;;5000944;28;20685;-93
2023/11/30 07:19:44;;;;;;;72.87;32.70;;;-7.20;88.90;;;;;;5000410;28;20217;-93
2023/11/30 07:22:18;;;;;;;28.33;22.50;;;-6.90;89.10;;;;;;4989832;28;20191;-92
2023/11/30 07:24:53;;;;;;;25.87;23.20;;;-6.70;89.20;;;;;;5004059;28;20173;-93
2023/11/30 07:27:31;;;;;;;42.53;36.50;;;-6.60;89.20;;;;;;5002551;28;20200;-93
2023/11/30 07:30:15;;;;;;;119.50;43.43;;;-6.70;88.80;;;;;;5002926;28;20521;-92
2023/11/30 07:32:56;;;;;;;109.83;43.23;;;-7.10;88.60;;;;;;5003625;28;20193;-92
2023/11/30 07:46:16;;;;;;;65.73;40.73;;;-6.60;90.40;;;;;;4909677;29;20187;-93
2023/11/30 07:49:40;;;;;;;117.27;39.77;;;-6.30;90.70;;;;;;4920984;29;20215;-92
2023/11/30 08:25:40;;;;;;;74.03;34.03;;;-5.10;92.70;;;;;;4996175;28;20217;-89
2023/11/30 08:28:05;;;;;;;100.20;40.60;;;-5.00;92.80;;;;;;4995466;28;20194;-89
2023/11/30 10:42:20;;;;;;;54.60;39.43;;;-1.90;93.80;;;;;;4993221;28;20225;-91
2023/11/30 10:45:06;;;;;;;48.17;36.40;;;-1.90;93.70;;;;;;4994913;28;20244;-93
2023/11/30 10:58:31;;;;;;;;;;;;;;;;;;;;;
2023/11/30 12:22:48;;;;;;;33.90;30.60;;;-1.40;92.30;;;;;;5016774;28;20168;-89
2023/11/30 12:25:44;;;;;;;26.17;23.43;;;-1.20;92.10;;;;;;5015340;28;20202;-89
2023/11/30 12:32:06;;;;;;;37.13;31.50;;;-1.30;91.50;;;;;;4969543;28;20277;-89
2023/11/30 12:34:31;;;;;;;35.97;32.30;;;-1.50;91.40;;;;;;5017229;28;20173;-90
2023/11/30 15:32:57;;;;;;;27.27;24.60;;;-1.60;88.10;;;;;;5368817;22;20232;-90
2023/11/30 15:35:23;;;;;;;33.67;30.60;;;-1.60;88.20;;;;;;5035692;28;20196;-88
2023/11/30 16:12:54;;;;;;;27.20;24.40;;;-0.70;86.10;;;;;;4976467;28;20233;-90
2023/11/30 16:16:06;;;;;;;33.67;30.40;;;-0.60;85.90;;;;;;4959162;28;20251;-90
2023/11/30 16:18:51;;;;;;;34.43;31.13;;;-0.60;85.40;;;;;;4958808;28;20203;-89
2023/11/30 16:21:36;;;;;;;36.03;32.83;;;-0.80;85.00;;;;;;4956246;28;20177;-89
2023/11/30 16:24:08;;;;;;;28.90;26.13;;;-1.00;84.80;;;;;;4959744;28;20187;-91
2023/11/30 16:26:53;;;;;;;29.60;26.80;;;-1.00;85.30;;;;;;4960357;28;20189;-91
2023/11/30 16:30:07;;;;;;;34.23;31.07;;;-0.90;85.70;;;;;;4959668;28;20232;-89
2023/11/30 16:36:38;;;;;;;32.73;29.43;;;-1.00;85.20;;;;;;4946301;29;20395;-90
2023/11/30 16:39:07;;;;;;;27.23;24.63;;;-1.20;85.00;;;;;;4917028;29;20205;-90
2023/11/30 16:41:55;;;;;;;29.27;26.37;;;-1.30;85.10;;;;;;4923821;28;20550;-90
2023/11/30 16:45:36;;;;;;;31.77;28.47;;;-1.40;85.40;;;;;;4974589;28;20187;-90
2023/11/30 16:52:36;;;;;;;;;;;;;;;;;;;;;
2023/11/30 16:55:48;;;;;;;;;;;;;;;;;;;;;
2023/11/30 17:02:09;;;;;;;35.97;32.27;;;-1.50;86.30;;;;;;4916550;29;20736;-90
2023/11/30 17:05:30;;;;;;;37.00;33.23;;;-1.60;86.10;;;;;;4917199;29;20369;-90
2023/11/30 17:12:25;;;;;;;36.53;27.30;;;-1.70;85.90;;;;;;4889956;29;20202;-90
2023/11/30 17:18:38;;;;;;;33.43;30.03;;;-2.00;86.00;;;;;;4879425;29;20334;-90
2023/11/30 17:21:09;;;;;;;34.73;30.97;;;-2.10;85.90;;;;;;4879736;29;20279;-89
2023/11/30 17:23:57;;;;;;;32.17;28.57;;;-2.20;85.90;;;;;;4974465;28;20302;-89
2023/11/30 17:26:44;;;;;;;31.57;28.17;;;-2.40;86.00;;;;;;4958805;28;20174;-90
2023/11/30 17:29:44;;;;;;;31.67;28.37;;;-2.50;86.00;;;;;;4958768;28;20215;-89
2023/11/30 17:32:15;;;;;;;33.93;26.73;;;-2.60;86.20;;;;;;4957923;28;20175;-89
2023/11/30 17:34:53;;;;;;;32.10;28.60;;;-2.60;86.50;;;;;;4958594;28;20557;-90
2023/11/30 17:37:30;;;;;;;29.80;26.60;;;-2.70;86.30;;;;;;4959111;28;20268;-89
2023/11/30 17:40:16;;;;;;;29.47;26.50;;;-2.80;86.30;;;;;;4959074;28;20257;-90
2023/11/30 17:42:47;;;;;;;34.97;31.20;;;-2.80;86.50;;;;;;4958470;28;20269;-90
2023/11/30 17:45:36;;;;;;;34.50;30.80;;;-2.80;86.60;;;;;;4958967;28;20202;-90
2023/11/30 17:48:05;;;;;;;36.13;32.33;;;-2.70;86.80;;;;;;4955512;28;20223;-91
2023/11/30 17:50:58;;;;;;;34.83;28.50;;;-2.60;86.80;;;;;;4958171;28;20661;-89
2023/11/30 17:53:34;;;;;;;34.07;29.60;;;-2.60;86.80;;;;;;4975638;28;20160;-90
2023/11/30 17:56:13;;;;;;;37.60;33.60;;;-2.60;86.80;;;;;;4957976;28;20202;-90
2023/11/30 17:58:44;;;;;;;37.23;32.87;;;-2.60;86.90;;;;;;4958630;28;20251;-90
2023/11/30 18:01:09;;;;;;;39.13;32.77;;;-2.60;86.90;;;;;;4958229;28;20654;-89
2023/11/30 18:03:38;;;;;;;36.90;32.77;;;-2.70;86.70;;;;;;4975443;28;20210;-89
2023/11/30 18:06:05;;;;;;;35.73;30.57;;;-2.90;86.50;;;;;;4957795;28;20183;-90
2023/11/30 18:08:31;;;;;;;37.00;31.03;;;-3.10;86.50;;;;;;4975175;28;20193;-89
2023/11/30 18:10:57;;;;;;;41.70;37.10;;;-3.40;86.50;;;;;;4975477;28;20243;-90
2023/11/30 18:13:25;;;;;;;41.53;37.07;;;-3.50;86.90;;;;;;4974921;28;20769;-90
2023/11/30 18:15:54;;;;;;;45.03;37.10;;;-3.50;87.20;;;;;;4975192;28;20260;-90
2023/11/30 18:18:23;;;;;;;36.13;30.90;;;-3.40;87.50;;;;;;4974874;28;20200;-90
2023/11/30 18:20:49;;;;;;;34.83;29.63;;;-3.40;87.60;;;;;;4957948;28;20640;-90
2023/11/30 18:23:23;;;;;;;36.37;28.30;;;-3.30;87.80;;;;;;4958646;28;20182;-90
2023/11/30 18:25:52;;;;;;;36.43;32.63;;;-3.10;88.00;;;;;;4958287;28;20533;-90
2023/11/30 18:28:17;;;;;;;38.23;33.93;;;-3.10;88.00;;;;;;4957634;28;20269;-90
2023/11/30 18:30:43;;;;;;;37.93;34.07;;;-3.10;88.00;;;;;;4974731;28;20210;-90
2023/11/30 18:33:11;;;;;;;36.57;30.17;;;-3.10;88.00;;;;;;4958234;28;20179;-90
2023/11/30 18:35:47;;;;;;;34.77;30.33;;;-3.10;87.80;;;;;;4957786;28;20198;-89
2023/11/30 18:38:13;;;;;;;39.53;35.43;;;-3.10;87.70;;;;;;4957311;28;20239;-89
2023/11/30 18:40:45;;;;;;;38.00;34.10;;;-3.10;87.60;;;;;;4957775;28;20182;-89
2023/11/30 18:43:15;;;;;;;38.47;34.43;;;-3.10;87.60;;;;;;4957211;28;20186;-89
2023/11/30 18:45:41;;;;;;;37.93;33.93;;;-3.00;87.50;;;;;;4957683;28;20634;-90
2023/11/30 18:48:21;;;;;;;34.87;30.83;;;-3.00;87.40;;;;;;4974404;28;20237;-89
2023/11/30 18:50:47;;;;;;;36.73;31.77;;;-3.00;87.20;;;;;;4958032;28;20532;-89
2023/11/30 18:53:13;;;;;;;39.60;35.83;;;-3.10;86.90;;;;;;4974355;28;20178;-89
2023/11/30 18:55:50;;;;;;;41.43;37.03;;;-3.10;86.80;;;;;;4957169;28;20226;-89
2023/11/30 18:58:16;;;;;;;42.30;37.93;;;-3.20;86.70;;;;;;4974327;28;20252;-90
2023/11/30 19:00:43;;;;;;;40.70;36.40;;;-3.20;86.60;;;;;;4974627;28;20629;-89
2023/11/30 19:03:12;;;;;;;37.20;33.30;;;-3.20;86.40;;;;;;4957313;28;20178;-89
2023/11/30 19:05:43;;;;;;;40.50;33.70;;;-3.20;86.40;;;;;;4956796;28;20559;-89
2023/11/30 19:08:37;;;;;;;42.27;37.97;;;-3.10;86.40;;;;;;4957479;28;20199;-89
2023/11/30 19:11:21;;;;;;;43.60;38.90;;;-3.10;86.30;;;;;;4953898;28;20191;-90
2023/11/30 19:14:01;;;;;;;46.57;41.23;;;-3.10;86.40;;;;;;4975151;28;20584;-89
2023/11/30 19:16:49;;;;;;;43.60;36.97;;;-3.00;86.30;;;;;;4974623;28;20194;-89
2023/11/30 19:19:14;;;;;;;40.83;36.40;;;-3.00;86.30;;;;;;4956984;28;20195;-89
2023/11/30 19:21:56;;;;;;;46.43;41.17;;;-3.00;86.30;;;;;;4957041;28;20175;-89
2023/11/30 19:24:48;;;;;;;54.40;44.87;;;-3.10;86.30;;;;;;4974367;28;20177;-89
2023/11/30 19:27:18;;;;;;;53.77;42.60;;;-3.10;86.30;;;;;;4973964;28;20187;-90
2023/11/30 19:30:15;;;;;;;48.13;38.83;;;-3.30;86.40;;;;;;4973867;28;20203;-89
2023/11/30 19:33:07;;;;;;;51.37;39.60;;;-3.30;86.60;;;;;;4956499;28;20185;-90
2023/11/30 19:35:39;;;;;;;54.30;43.87;;;-3.50;86.90;;;;;;4956962;28;20231;-90
2023/11/30 19:38:25;;;;;;;;;;;;;;;;;;;;;
2023/11/30 19:41:00;;;;;;;55.70;43.97;;;-3.60;87.30;;;;;;4974687;28;20160;-90
2023/11/30 19:43:54;;;;;;;61.17;40.90;;;-3.70;87.50;;;;;;4957134;28;20261;-91
2023/11/30 19:46:50;;;;;;;;;;;;;;;;;;;;;
2023/11/30 19:49:19;;;;;;;52.70;42.40;;;-4.00;87.80;;;;;;4973884;28;20568;-89
2023/11/30 19:55:46;;;;;;;49.17;41.40;;;-4.20;87.90;;;;;;4895708;29;20214;-90
2023/11/30 19:58:15;;;;;;;48.47;37.50;;;-4.60;87.30;;;;;;4879614;29;20226;-91
2023/11/30 20:00:43;;;;;;;50.27;40.77;;;-4.70;87.10;;;;;;4895945;29;20296;-90
2023/11/30 20:03:25;;;;;;;61.57;46.13;;;-4.80;86.90;;;;;;4879858;29;20302;-90
2023/11/30 20:05:51;;;;;;;56.33;43.23;;;-4.90;86.90;;;;;;4893076;29;20184;-90
2023/11/30 20:08:22;;;;;;;56.87;42.67;;;-4.90;87.00;;;;;;4952516;28;20192;-90
2023/11/30 20:10:55;;;;;;;62.20;46.40;;;-4.90;87.00;;;;;;4931629;28;20652;-90
2023/11/30 20:17:50;;;;;;;56.40;39.40;;;-5.00;86.90;;;;;;4975623;28;20213;-90
2023/11/30 20:20:32;;;;;;;58.13;43.40;;;-5.20;86.80;;;;;;4960376;28;20186;-91
2023/11/30 20:22:58;;;;;;;59.20;44.87;;;-5.40;86.70;;;;;;4960571;28;20183;-91
2023/11/30 20:25:24;;;;;;;54.27;41.60;;;-5.60;86.70;;;;;;4958870;28;20682;-89
2023/11/30 20:28:12;;;;;;;55.70;39.90;;;-5.70;86.60;;;;;;4959645;28;20693;-91
2023/11/30 20:31:21;;;;;;;55.67;38.60;;;-5.80;86.70;;;;;;4959576;28;20167;-90
2023/11/30 20:48:03;;;;;;;64.17;42.83;;;-6.20;87.70;;;;;;4995118;28;20786;-92
2023/11/30 21:03:58;;;;;;;58.80;40.47;;;-6.60;88.20;;;;;;4959481;28;20193;-90
2023/11/30 21:07:00;;;;;;;65.40;42.97;;;-6.70;88.20;;;;;;4958203;28;20189;-91
2023/11/30 21:14:12;;;;;;;56.47;34.03;;;-6.70;88.20;;;;;;4932535;29;20330;-91
2023/11/30 21:17:36;;;;;;;61.73;41.73;;;-6.60;88.50;;;;;;4844692;29;20220;-92
2023/11/30 21:20:48;;;;;;;58.60;42.77;;;-6.50;88.50;;;;;;4861052;29;20194;-92
2023/11/30 21:24:05;;;;;;;62.67;36.03;;;-6.50;88.40;;;;;;4869267;29;20660;-91
2023/11/30 21:27:24;;;;;;;57.27;34.70;;;-6.50;88.30;;;;;;4922907;28;20276;-91
2023/11/30 21:30:34;;;;;;;;;;;;;;;;;;;;;
2023/11/30 21:37:28;;;;;;;63.83;44.60;;;-6.50;88.30;;;;;;4943919;29;20227;-92
2023/11/30 21:40:59;;;;;;;;;;;;;;;;;;;;;
2023/11/30 22:32:39;;;;;;;49.87;34.33;;;-5.90;87.60;;;;;;4936538;28;20257;-91
2023/11/30 22:37:00;;;;;;;49.53;34.67;;;-5.90;87.40;;;;;;4971618;28;20194;-90
